sensor_id;sensor_type;location;lat;lon;timestamp;pressure;altitude;pressure_sealevel;temperature;humidity
41866;BME280;27539;43.222;27.558;2023-08-06T00:01:45;99313.47;;;24.58;100.00
41866;BME280;27539;43.222;27.558;2023-08-06T00:04:10;99311.06;;;24.61;100.00
41866;BME280;27539;43.222;27.558;2023-08-06T00:06:35;99302.38;;;24.53;100.00
41866;BME280;27539;43.222;27.558;2023-08-06T00:09:01;99297.44;;;24.50;100.00
41866;BME280;27539;43.222;27.558;2023-08-06T00:11:26;99300.97;;;24.63;100.00
41866;BME280;27539;43.222;27.558;2023-08-06T00:13:52;99285.97;;;24.47;100.00
41866;BME280;27539;43.222;27.558;2023-08-06T00:16:17;99273.03;;;24.14;100.00
41866;BME280;27539;43.222;27.558;2023-08-06T00:18:43;99301.25;;;24.23;100.00
41866;BME280;27539;43.222;27.558;2023-08-06T00:21:08;99317.09;;;24.24;100.00
41866;BME280;27539;43.222;27.558;2023-08-06T00:23:34;99304.28;;;24.14;100.00
41866;BME280;27539;43.222;27.558;2023-08-06T00:25:59;99276.91;;;23.90;100.00
41866;BME280;27539;43.222;27.558;2023-08-06T00:28:24;99308.16;;;24.06;100.00
41866;BME280;27539;43.222;27.558;2023-08-06T00:30:54;99303.00;;;24.11;100.00
41866;BME280;27539;43.222;27.558;2023-08-06T00:33:20;99255.66;;;23.84;100.00
41866;BME280;27539;43.222;27.558;2023-08-06T00:35:46;99250.63;;;23.77;100.00
41866;BME280;27539;43.222;27.558;2023-08-06T00:38:12;99292.84;;;23.94;100.00
41866;BME280;27539;43.222;27.558;2023-08-06T00:40:37;99293.22;;;23.93;100.00
41866;BME280;27539;43.222;27.558;2023-08-06T00:43:03;99307.03;;;23.94;100.00
41866;BME280;27539;43.222;27.558;2023-08-06T00:45:29;99294.50;;;23.80;100.00
41866;BME280;27539;43.222;27.558;2023-08-06T00:47:55;99299.91;;;23.85;100.00
41866;BME280;27539;43.222;27.558;2023-08-06T00:50:21;99292.31;;;23.89;100.00
41866;BME280;27539;43.222;27.558;2023-08-06T00:52:48;99285.41;;;23.90;100.00
41866;BME280;27539;43.222;27.558;2023-08-06T00:55:14;99279.66;;;23.86;100.00
41866;BME280;27539;43.222;27.558;2023-08-06T00:57:40;99289.09;;;23.75;100.00
41866;BME280;27539;43.222;27.558;2023-08-06T01:00:07;99266.16;;;23.67;100.00
41866;BME280;27539;43.222;27.558;2023-08-06T01:02:32;99234.13;;;23.51;100.00
41866;BME280;27539;43.222;27.558;2023-08-06T01:04:58;99276.28;;;23.81;100.00
41866;BME280;27539;43.222;27.558;2023-08-06T01:15:55;99230.94;;;23.84;100.00
41866;BME280;27539;43.222;27.558;2023-08-06T01:18:25;99249.22;;;24.03;100.00
41866;BME280;27539;43.222;27.558;2023-08-06T01:20:50;99251.50;;;24.13;100.00
41866;BME280;27539;43.222;27.558;2023-08-06T01:23:16;99242.59;;;24.14;100.00
41866;BME280;27539;43.222;27.558;2023-08-06T01:26:07;99235.22;;;24.29;100.00
41866;BME280;27539;43.222;27.558;2023-08-06T01:31:15;99223.94;;;24.33;100.00
41866;BME280;27539;43.222;27.558;2023-08-06T01:33:44;99219.53;;;24.35;100.00
41866;BME280;27539;43.222;27.558;2023-08-06T01:36:11;99220.34;;;24.36;100.00
41866;BME280;27539;43.222;27.558;2023-08-06T01:38:36;99224.81;;;24.37;100.00
41866;BME280;27539;43.222;27.558;2023-08-06T01:41:02;99197.66;;;24.20;100.00
41866;BME280;27539;43.222;27.558;2023-08-06T01:43:27;99224.06;;;24.40;100.00
41866;BME280;27539;43.222;27.558;2023-08-06T01:45:53;99223.19;;;24.36;100.00
41866;BME280;27539;43.222;27.558;2023-08-06T01:48:18;99213.84;;;24.35;100.00
41866;BME280;27539;43.222;27.558;2023-08-06T01:50:43;99199.09;;;24.30;100.00
41866;BME280;27539;43.222;27.558;2023-08-06T01:53:09;99200.00;;;24.34;100.00
41866;BME280;27539;43.222;27.558;2023-08-06T01:55:34;99151.50;;;24.07;100.00
41866;BME280;27539;43.222;27.558;2023-08-06T01:58:00;99187.56;;;24.42;100.00
41866;BME280;27539;43.222;27.558;2023-08-06T02:00:25;99188.38;;;24.43;100.00
41866;BME280;27539;43.222;27.558;2023-08-06T02:02:53;99180.16;;;24.37;100.00
41866;BME280;27539;43.222;27.558;2023-08-06T02:05:18;99181.72;;;24.35;100.00
41866;BME280;27539;43.222;27.558;2023-08-06T02:07:43;99143.69;;;24.01;100.00
41866;BME280;27539;43.222;27.558;2023-08-06T02:10:09;99178.44;;;24.13;100.00
41866;BME280;27539;43.222;27.558;2023-08-06T02:12:34;99181.44;;;24.21;100.00
41866;BME280;27539;43.222;27.558;2023-08-06T02:15:00;99162.56;;;24.12;100.00
41866;BME280;27539;43.222;27.558;2023-08-06T02:17:25;99174.91;;;24.20;100.00
41866;BME280;27539;43.222;27.558;2023-08-06T02:19:51;99171.50;;;24.11;100.00
41866;BME280;27539;43.222;27.558;2023-08-06T02:22:16;99181.19;;;24.10;100.00
41866;BME280;27539;43.222;27.558;2023-08-06T02:24:42;99177.53;;;24.09;100.00
41866;BME280;27539;43.222;27.558;2023-08-06T02:27:07;99164.44;;;24.05;100.00
41866;BME280;27539;43.222;27.558;2023-08-06T02:29:33;99180.66;;;24.04;100.00
41866;BME280;27539;43.222;27.558;2023-08-06T02:31:58;99171.25;;;24.00;100.00
41866;BME280;27539;43.222;27.558;2023-08-06T02:34:26;99142.72;;;23.77;100.00
41866;BME280;27539;43.222;27.558;2023-08-06T02:36:51;99185.06;;;24.02;100.00
41866;BME280;27539;43.222;27.558;2023-08-06T02:39:17;99188.03;;;23.89;100.00
41866;BME280;27539;43.222;27.558;2023-08-06T02:41:43;99144.66;;;23.57;100.00
41866;BME280;27539;43.222;27.558;2023-08-06T02:44:08;99182.19;;;23.82;100.00
41866;BME280;27539;43.222;27.558;2023-08-06T02:46:33;99159.34;;;23.75;100.00
41866;BME280;27539;43.222;27.558;2023-08-06T02:48:59;99181.00;;;23.83;100.00
41866;BME280;27539;43.222;27.558;2023-08-06T02:51:24;99183.56;;;23.88;100.00
41866;BME280;27539;43.222;27.558;2023-08-06T02:53:50;99183.13;;;23.70;100.00
41866;BME280;27539;43.222;27.558;2023-08-06T02:56:15;99198.88;;;23.68;100.00
41866;BME280;27539;43.222;27.558;2023-08-06T02:58:41;99189.16;;;23.69;100.00
41866;BME280;27539;43.222;27.558;2023-08-06T03:01:06;99200.38;;;23.78;100.00
41866;BME280;27539;43.222;27.558;2023-08-06T03:03:33;99202.53;;;23.84;100.00
41866;BME280;27539;43.222;27.558;2023-08-06T03:05:58;99210.69;;;23.86;100.00
41866;BME280;27539;43.222;27.558;2023-08-06T03:08:24;99211.44;;;23.83;100.00
41866;BME280;27539;43.222;27.558;2023-08-06T03:10:50;99219.84;;;23.79;100.00
41866;BME280;27539;43.222;27.558;2023-08-06T03:13:16;99215.53;;;23.69;100.00
41866;BME280;27539;43.222;27.558;2023-08-06T03:15:42;99224.78;;;23.66;100.00
41866;BME280;27539;43.222;27.558;2023-08-06T03:18:08;99212.44;;;23.59;100.00
41866;BME280;27539;43.222;27.558;2023-08-06T03:20:33;99170.34;;;23.29;100.00
41866;BME280;27539;43.222;27.558;2023-08-06T03:22:59;99205.53;;;23.60;100.00
41866;BME280;27539;43.222;27.558;2023-08-06T03:25:25;99214.00;;;23.56;100.00
41866;BME280;27539;43.222;27.558;2023-08-06T03:27:50;99219.31;;;23.58;100.00
41866;BME280;27539;43.222;27.558;2023-08-06T03:30:15;99215.06;;;23.67;100.00
41866;BME280;27539;43.222;27.558;2023-08-06T03:32:41;99192.75;;;23.66;100.00
41866;BME280;27539;43.222;27.558;2023-08-06T03:35:07;99173.31;;;23.52;100.00
41866;BME280;27539;43.222;27.558;2023-08-06T03:37:32;99189.91;;;23.66;100.00
41866;BME280;27539;43.222;27.558;2023-08-06T03:39:58;99203.91;;;23.75;100.00
41866;BME280;27539;43.222;27.558;2023-08-06T03:42:23;99210.66;;;23.70;100.00
41866;BME280;27539;43.222;27.558;2023-08-06T03:44:49;99213.00;;;23.80;100.00
41866;BME280;27539;43.222;27.558;2023-08-06T03:47:14;99205.75;;;23.83;100.00
41866;BME280;27539;43.222;27.558;2023-08-06T03:49:39;99183.75;;;23.80;100.00
41866;BME280;27539;43.222;27.558;2023-08-06T03:52:05;99195.44;;;23.94;100.00
41866;BME280;27539;43.222;27.558;2023-08-06T03:54:31;99197.47;;;23.93;100.00
41866;BME280;27539;43.222;27.558;2023-08-06T03:56:56;99192.72;;;23.98;100.00
41866;BME280;27539;43.222;27.558;2023-08-06T03:59:22;99202.94;;;24.02;100.00
41866;BME280;27539;43.222;27.558;2023-08-06T04:01:47;99179.69;;;23.97;100.00
41866;BME280;27539;43.222;27.558;2023-08-06T04:04:13;99189.19;;;24.04;100.00
41866;BME280;27539;43.222;27.558;2023-08-06T04:06:38;99180.31;;;24.06;100.00
41866;BME280;27539;43.222;27.558;2023-08-06T04:09:03;99198.50;;;24.21;100.00
41866;BME280;27539;43.222;27.558;2023-08-06T04:11:29;99186.69;;;24.19;100.00
41866;BME280;27539;43.222;27.558;2023-08-06T04:13:54;99187.34;;;24.31;100.00
41866;BME280;27539;43.222;27.558;2023-08-06T04:16:21;99175.16;;;24.31;100.00
41866;BME280;27539;43.222;27.558;2023-08-06T04:18:47;99182.50;;;24.32;100.00
41866;BME280;27539;43.222;27.558;2023-08-06T04:21:12;99171.41;;;24.27;100.00
41866;BME280;27539;43.222;27.558;2023-08-06T04:23:38;99176.00;;;24.31;100.00
41866;BME280;27539;43.222;27.558;2023-08-06T04:26:03;99152.28;;;24.24;100.00
41866;BME280;27539;43.222;27.558;2023-08-06T04:28:29;99122.28;;;24.07;100.00
41866;BME280;27539;43.222;27.558;2023-08-06T04:30:55;99164.31;;;24.36;100.00
41866;BME280;27539;43.222;27.558;2023-08-06T04:33:20;99161.19;;;24.42;100.00
41866;BME280;27539;43.222;27.558;2023-08-06T04:35:46;99163.09;;;24.53;100.00
41866;BME280;27539;43.222;27.558;2023-08-06T04:38:11;99130.53;;;24.51;100.00
41866;BME280;27539;43.222;27.558;2023-08-06T04:40:37;99147.53;;;24.70;100.00
41866;BME280;27539;43.222;27.558;2023-08-06T04:43:02;99149.41;;;24.82;100.00
41866;BME280;27539;43.222;27.558;2023-08-06T04:45:28;99141.31;;;24.84;100.00
41866;BME280;27539;43.222;27.558;2023-08-06T04:47:53;99143.16;;;24.96;100.00
41866;BME280;27539;43.222;27.558;2023-08-06T04:50:19;99129.41;;;24.98;100.00
41866;BME280;27539;43.222;27.558;2023-08-06T04:52:45;99135.31;;;25.12;100.00
41866;BME280;27539;43.222;27.558;2023-08-06T04:55:10;99137.88;;;25.17;100.00
41866;BME280;27539;43.222;27.558;2023-08-06T04:57:36;99138.75;;;25.21;100.00
41866;BME280;27539;43.222;27.558;2023-08-06T05:00:01;99114.34;;;25.20;100.00
41866;BME280;27539;43.222;27.558;2023-08-06T05:02:27;99134.59;;;25.38;100.00
41866;BME280;27539;43.222;27.558;2023-08-06T05:04:52;99127.78;;;25.47;100.00
41866;BME280;27539;43.222;27.558;2023-08-06T05:07:18;99104.00;;;25.35;100.00
41866;BME280;27539;43.222;27.558;2023-08-06T05:09:43;99104.94;;;25.43;100.00
41866;BME280;27539;43.222;27.558;2023-08-06T05:12:09;99122.25;;;25.84;100.00
41866;BME280;27539;43.222;27.558;2023-08-06T05:14:34;99119.22;;;26.00;100.00
41866;BME280;27539;43.222;27.558;2023-08-06T05:17:00;99118.56;;;26.10;100.00
41866;BME280;27539;43.222;27.558;2023-08-06T05:19:27;99075.47;;;25.85;100.00
41866;BME280;27539;43.222;27.558;2023-08-06T05:21:52;99126.16;;;25.99;100.00
41866;BME280;27539;43.222;27.558;2023-08-06T05:24:18;99121.97;;;25.93;100.00
41866;BME280;27539;43.222;27.558;2023-08-06T05:26:43;99124.16;;;26.03;100.00
41866;BME280;27539;43.222;27.558;2023-08-06T05:29:12;99106.66;;;26.01;100.00
41866;BME280;27539;43.222;27.558;2023-08-06T05:31:37;99069.19;;;25.72;100.00
41866;BME280;27539;43.222;27.558;2023-08-06T05:34:02;99111.94;;;26.02;100.00
41866;BME280;27539;43.222;27.558;2023-08-06T05:36:28;99124.72;;;26.16;100.00
41866;BME280;27539;43.222;27.558;2023-08-06T05:38:53;99116.72;;;25.95;100.00
41866;BME280;27539;43.222;27.558;2023-08-06T05:41:19;99108.72;;;26.04;100.00
41866;BME280;27539;43.222;27.558;2023-08-06T05:43:45;99082.19;;;26.00;100.00
41866;BME280;27539;43.222;27.558;2023-08-06T05:46:10;99099.56;;;26.21;100.00
41866;BME280;27539;43.222;27.558;2023-08-06T05:48:36;99096.16;;;26.08;100.00
41866;BME280;27539;43.222;27.558;2023-08-06T05:51:01;99068.47;;;26.09;100.00
41866;BME280;27539;43.222;27.558;2023-08-06T05:53:27;99081.31;;;26.26;100.00
41866;BME280;27539;43.222;27.558;2023-08-06T05:55:52;99083.97;;;26.45;100.00
41866;BME280;27539;43.222;27.558;2023-08-06T05:58:18;99094.28;;;26.54;100.00
41866;BME280;27539;43.222;27.558;2023-08-06T06:00:45;99088.94;;;26.52;100.00
41866;BME280;27539;43.222;27.558;2023-08-06T06:03:11;99091.84;;;26.56;100.00
41866;BME280;27539;43.222;27.558;2023-08-06T06:05:39;99089.44;;;26.27;100.00
41866;BME280;27539;43.222;27.558;2023-08-06T06:08:05;99090.59;;;26.53;100.00
41866;BME280;27539;43.222;27.558;2023-08-06T06:10:30;99094.75;;;26.59;100.00
41866;BME280;27539;43.222;27.558;2023-08-06T06:12:56;99039.81;;;26.28;100.00
41866;BME280;27539;43.222;27.558;2023-08-06T06:15:21;99104.81;;;26.87;100.00
41866;BME280;27539;43.222;27.558;2023-08-06T06:17:47;99088.13;;;26.89;100.00
41866;BME280;27539;43.222;27.558;2023-08-06T06:20:12;99090.63;;;26.98;100.00
41866;BME280;27539;43.222;27.558;2023-08-06T06:22:38;99085.34;;;26.96;100.00
41866;BME280;27539;43.222;27.558;2023-08-06T06:25:04;99081.25;;;26.97;100.00
41866;BME280;27539;43.222;27.558;2023-08-06T06:27:29;99040.94;;;27.02;100.00
41866;BME280;27539;43.222;27.558;2023-08-06T06:29:55;99068.59;;;27.43;100.00
41866;BME280;27539;43.222;27.558;2023-08-06T06:32:21;99071.13;;;27.58;100.00
41866;BME280;27539;43.222;27.558;2023-08-06T06:34:47;99072.44;;;27.72;100.00
41866;BME280;27539;43.222;27.558;2023-08-06T06:37:12;99080.00;;;28.09;100.00
41866;BME280;27539;43.222;27.558;2023-08-06T06:39:38;99070.22;;;28.10;100.00
41866;BME280;27539;43.222;27.558;2023-08-06T06:42:03;99072.34;;;27.54;100.00
41866;BME280;27539;43.222;27.558;2023-08-06T06:44:30;99081.31;;;27.56;100.00
41866;BME280;27539;43.222;27.558;2023-08-06T06:46:55;99089.63;;;27.79;100.00
41866;BME280;27539;43.222;27.558;2023-08-06T06:49:21;99080.22;;;27.78;100.00
41866;BME280;27539;43.222;27.558;2023-08-06T06:51:46;99075.09;;;28.02;100.00
41866;BME280;27539;43.222;27.558;2023-08-06T06:54:12;99078.44;;;28.22;100.00
41866;BME280;27539;43.222;27.558;2023-08-06T06:56:37;99075.25;;;28.45;100.00
41866;BME280;27539;43.222;27.558;2023-08-06T06:59:03;99077.59;;;28.14;100.00
41866;BME280;27539;43.222;27.558;2023-08-06T07:01:28;99081.91;;;27.83;100.00
41866;BME280;27539;43.222;27.558;2023-08-06T07:03:54;99076.16;;;27.79;100.00
41866;BME280;27539;43.222;27.558;2023-08-06T07:06:19;99074.72;;;28.18;100.00
41866;BME280;27539;43.222;27.558;2023-08-06T07:08:45;99071.13;;;28.32;100.00
41866;BME280;27539;43.222;27.558;2023-08-06T07:11:11;99070.78;;;28.48;100.00
41866;BME280;27539;43.222;27.558;2023-08-06T07:13:36;99068.34;;;28.50;100.00
41866;BME280;27539;43.222;27.558;2023-08-06T07:16:02;99065.13;;;28.83;100.00
41866;BME280;27539;43.222;27.558;2023-08-06T07:18:28;99062.22;;;28.69;100.00
41866;BME280;27539;43.222;27.558;2023-08-06T07:20:54;99052.44;;;28.70;100.00
41866;BME280;27539;43.222;27.558;2023-08-06T07:23:21;99073.31;;;28.96;100.00
41866;BME280;27539;43.222;27.558;2023-08-06T07:25:47;99063.91;;;28.95;100.00
41866;BME280;27539;43.222;27.558;2023-08-06T07:28:16;99068.38;;;28.85;100.00
41866;BME280;27539;43.222;27.558;2023-08-06T07:30:43;99063.94;;;29.10;100.00
41866;BME280;27539;43.222;27.558;2023-08-06T07:33:09;99063.09;;;29.38;100.00
41866;BME280;27539;43.222;27.558;2023-08-06T07:35:35;99057.72;;;29.61;100.00
41866;BME280;27539;43.222;27.558;2023-08-06T07:38:01;99054.47;;;29.66;100.00
41866;BME280;27539;43.222;27.558;2023-08-06T07:40:27;99047.50;;;29.60;100.00
41866;BME280;27539;43.222;27.558;2023-08-06T07:42:52;99039.31;;;29.51;100.00
41866;BME280;27539;43.222;27.558;2023-08-06T07:45:18;99064.69;;;29.78;100.00
41866;BME280;27539;43.222;27.558;2023-08-06T07:47:43;99059.41;;;29.41;100.00
41866;BME280;27539;43.222;27.558;2023-08-06T07:50:09;99073.31;;;29.49;100.00
41866;BME280;27539;43.222;27.558;2023-08-06T07:52:35;99060.56;;;29.79;100.00
41866;BME280;27539;43.222;27.558;2023-08-06T07:55:01;99050.22;;;30.10;100.00
41866;BME280;27539;43.222;27.558;2023-08-06T07:57:30;99036.63;;;30.22;100.00
41866;BME280;27539;43.222;27.558;2023-08-06T07:59:56;99044.69;;;30.55;100.00
41866;BME280;27539;43.222;27.558;2023-08-06T08:02:21;99053.97;;;30.77;100.00
41866;BME280;27539;43.222;27.558;2023-08-06T08:04:47;99060.38;;;30.40;100.00
41866;BME280;27539;43.222;27.558;2023-08-06T08:07:13;99072.50;;;30.62;100.00
41866;BME280;27539;43.222;27.558;2023-08-06T08:09:38;99064.59;;;30.84;100.00
41866;BME280;27539;43.222;27.558;2023-08-06T08:12:04;99061.34;;;30.82;100.00
41866;BME280;27539;43.222;27.558;2023-08-06T08:14:30;99055.03;;;31.05;100.00
41866;BME280;27539;43.222;27.558;2023-08-06T08:17:01;99041.84;;;31.11;100.00
41866;BME280;27539;43.222;27.558;2023-08-06T08:19:27;99033.34;;;31.42;100.00
41866;BME280;27539;43.222;27.558;2023-08-06T08:21:53;99039.22;;;31.73;100.00
41866;BME280;27539;43.222;27.558;2023-08-06T08:24:20;99035.97;;;31.67;100.00
41866;BME280;27539;43.222;27.558;2023-08-06T08:26:45;99033.84;;;31.30;100.00
41866;BME280;27539;43.222;27.558;2023-08-06T08:29:11;99030.69;;;31.62;100.00
41866;BME280;27539;43.222;27.558;2023-08-06T08:31:36;99022.13;;;31.55;100.00
41866;BME280;27539;43.222;27.558;2023-08-06T08:34:05;99025.44;;;31.88;100.00
41866;BME280;27539;43.222;27.558;2023-08-06T08:36:31;99030.69;;;32.00;100.00
41866;BME280;27539;43.222;27.558;2023-08-06T08:38:56;99023.06;;;31.82;100.00
41866;BME280;27539;43.222;27.558;2023-08-06T08:41:22;99041.63;;;32.12;100.00
41866;BME280;27539;43.222;27.558;2023-08-06T08:43:50;99034.81;;;31.99;100.00
41866;BME280;27539;43.222;27.558;2023-08-06T08:46:18;99030.72;;;31.58;100.00
41866;BME280;27539;43.222;27.558;2023-08-06T08:48:44;99025.72;;;31.66;100.00
41866;BME280;27539;43.222;27.558;2023-08-06T08:51:11;99012.94;;;32.05;100.00
41866;BME280;27539;43.222;27.558;2023-08-06T08:53:38;99021.72;;;32.25;100.00
41866;BME280;27539;43.222;27.558;2023-08-06T08:56:05;99010.25;;;32.52;100.00
41866;BME280;27539;43.222;27.558;2023-08-06T08:58:31;98987.22;;;32.52;100.00
41866;BME280;27539;43.222;27.558;2023-08-06T09:00:57;98969.19;;;32.21;98.74
41866;BME280;27539;43.222;27.558;2023-08-06T09:03:23;98991.00;;;32.49;99.99
41866;BME280;27539;43.222;27.558;2023-08-06T09:05:52;98999.84;;;32.62;99.81
41866;BME280;27539;43.222;27.558;2023-08-06T09:08:24;98974.16;;;32.98;100.00
41866;BME280;27539;43.222;27.558;2023-08-06T09:10:53;98986.38;;;33.29;96.87
41866;BME280;27539;43.222;27.558;2023-08-06T09:13:18;98980.31;;;33.24;93.50
41866;BME280;27539;43.222;27.558;2023-08-06T09:15:46;98979.28;;;33.34;94.80
41866;BME280;27539;43.222;27.558;2023-08-06T09:18:12;98981.94;;;32.98;92.63
41866;BME280;27539;43.222;27.558;2023-08-06T09:20:41;98977.66;;;32.86;94.01
41866;BME280;27539;43.222;27.558;2023-08-06T09:23:10;98969.66;;;33.21;97.23
41866;BME280;27539;43.222;27.558;2023-08-06T09:25:38;98974.66;;;33.60;93.46
41866;BME280;27539;43.222;27.558;2023-08-06T09:28:05;98967.72;;;33.58;90.01
41866;BME280;27539;43.222;27.558;2023-08-06T09:30:32;98975.00;;;33.42;89.44
41866;BME280;27539;43.222;27.558;2023-08-06T09:32:58;98945.19;;;33.09;88.85
41866;BME280;27539;43.222;27.558;2023-08-06T09:35:23;98947.16;;;33.55;90.15
41866;BME280;27539;43.222;27.558;2023-08-06T09:37:49;98949.47;;;33.84;88.56
41866;BME280;27539;43.222;27.558;2023-08-06T09:42:52;98957.22;;;34.07;89.16
41866;BME280;27539;43.222;27.558;2023-08-06T09:45:18;98943.22;;;34.06;86.79
41866;BME280;27539;43.222;27.558;2023-08-06T09:47:44;98953.00;;;34.12;85.50
41866;BME280;27539;43.222;27.558;2023-08-06T09:50:19;98951.53;;;33.84;89.90
41866;BME280;27539;43.222;27.558;2023-08-06T09:52:46;98952.59;;;33.30;88.87
41866;BME280;27539;43.222;27.558;2023-08-06T09:55:12;98941.63;;;33.65;86.76
41866;BME280;27539;43.222;27.558;2023-08-06T09:57:40;98932.47;;;33.70;87.25
41866;BME280;27539;43.222;27.558;2023-08-06T10:00:07;98883.81;;;33.52;91.23
41866;BME280;27539;43.222;27.558;2023-08-06T10:02:35;98918.16;;;34.03;91.25
41866;BME280;27539;43.222;27.558;2023-08-06T10:05:02;98900.81;;;34.23;90.68
41866;BME280;27539;43.222;27.558;2023-08-06T10:07:30;98907.50;;;34.36;82.88
41866;BME280;27539;43.222;27.558;2023-08-06T10:09:56;98920.47;;;34.11;86.16
41866;BME280;27539;43.222;27.558;2023-08-06T10:12:22;98881.31;;;34.10;86.19
41866;BME280;27539;43.222;27.558;2023-08-06T10:14:51;98887.19;;;33.87;85.23
41866;BME280;27539;43.222;27.558;2023-08-06T10:17:19;98893.22;;;34.12;82.18
41866;BME280;27539;43.222;27.558;2023-08-06T10:19:46;98882.13;;;34.11;83.06
41866;BME280;27539;43.222;27.558;2023-08-06T10:22:16;98891.81;;;34.37;79.80
41866;BME280;27539;43.222;27.558;2023-08-06T10:24:53;98875.19;;;34.41;75.19
41866;BME280;27539;43.222;27.558;2023-08-06T10:27:35;98872.41;;;34.87;74.30
41866;BME280;27539;43.222;27.558;2023-08-06T10:30:24;98867.50;;;35.00;71.17
41866;BME280;27539;43.222;27.558;2023-08-06T10:32:51;98840.09;;;34.92;72.16
41866;BME280;27539;43.222;27.558;2023-08-06T10:38:11;98861.00;;;35.12;67.74
41866;BME280;27539;43.222;27.558;2023-08-06T10:40:41;98868.00;;;34.66;73.25
41866;BME280;27539;43.222;27.558;2023-08-06T10:43:07;98869.78;;;34.10;83.58
41866;BME280;27539;43.222;27.558;2023-08-06T10:45:35;98870.25;;;33.89;89.75
41866;BME280;27539;43.222;27.558;2023-08-06T10:48:02;98865.81;;;34.20;90.07
41866;BME280;27539;43.222;27.558;2023-08-06T10:50:27;98850.41;;;34.76;87.15
41866;BME280;27539;43.222;27.558;2023-08-06T10:52:53;98845.13;;;35.04;86.97
41866;BME280;27539;43.222;27.558;2023-08-06T10:55:23;98854.66;;;34.72;84.68
41866;BME280;27539;43.222;27.558;2023-08-06T10:57:49;98846.56;;;34.96;84.46
41866;BME280;27539;43.222;27.558;2023-08-06T11:00:15;98838.06;;;35.05;85.81
41866;BME280;27539;43.222;27.558;2023-08-06T11:02:41;98814.06;;;34.46;86.32
41866;BME280;27539;43.222;27.558;2023-08-06T11:05:10;98830.53;;;34.46;87.95
41866;BME280;27539;43.222;27.558;2023-08-06T11:07:37;98832.44;;;34.36;90.39
41866;BME280;27539;43.222;27.558;2023-08-06T11:10:03;98816.91;;;33.97;91.34
41866;BME280;27539;43.222;27.558;2023-08-06T11:12:30;98830.53;;;33.96;92.77
41866;BME280;27539;43.222;27.558;2023-08-06T11:14:56;98843.00;;;33.73;93.06
41866;BME280;27539;43.222;27.558;2023-08-06T11:17:22;98842.03;;;33.40;91.27
41866;BME280;27539;43.222;27.558;2023-08-06T11:19:47;98813.31;;;33.37;91.83
41866;BME280;27539;43.222;27.558;2023-08-06T11:22:15;98805.09;;;33.35;92.61
41866;BME280;27539;43.222;27.558;2023-08-06T11:24:41;98815.28;;;33.00;95.16
41866;BME280;27539;43.222;27.558;2023-08-06T11:27:13;98824.78;;;32.77;98.29
41866;BME280;27539;43.222;27.558;2023-08-06T11:29:40;98816.28;;;32.69;100.00
41866;BME280;27539;43.222;27.558;2023-08-06T11:32:06;98818.09;;;32.36;100.00
41866;BME280;27539;43.222;27.558;2023-08-06T11:34:31;98847.78;;;32.06;100.00
41866;BME280;27539;43.222;27.558;2023-08-06T11:36:57;99000.00;;;31.10;100.00
41866;BME280;27539;43.222;27.558;2023-08-06T11:39:23;99084.41;;;27.33;100.00
41866;BME280;27539;43.222;27.558;2023-08-06T11:45:50;99068.13;;;22.94;100.00
41866;BME280;27539;43.222;27.558;2023-08-06T11:48:19;99101.41;;;22.65;100.00
41866;BME280;27539;43.222;27.558;2023-08-06T11:50:45;99014.81;;;22.83;100.00
41866;BME280;27539;43.222;27.558;2023-08-06T11:53:14;98996.69;;;22.88;100.00
41866;BME280;27539;43.222;27.558;2023-08-06T11:55:40;98979.25;;;22.70;100.00
41866;BME280;27539;43.222;27.558;2023-08-06T11:58:05;98941.50;;;22.34;100.00
41866;BME280;27539;43.222;27.558;2023-08-06T12:00:31;99015.34;;;22.41;100.00
41866;BME280;27539;43.222;27.558;2023-08-06T12:02:57;99045.41;;;22.62;100.00
41866;BME280;27539;43.222;27.558;2023-08-06T12:05:28;99047.75;;;22.72;100.00
41866;BME280;27539;43.222;27.558;2023-08-06T12:07:58;99014.34;;;22.81;100.00
41866;BME280;27539;43.222;27.558;2023-08-06T12:10:25;98996.03;;;22.95;100.00
41866;BME280;27539;43.222;27.558;2023-08-06T12:12:51;98944.84;;;22.72;100.00
41866;BME280;27539;43.222;27.558;2023-08-06T12:15:17;99008.25;;;23.31;100.00
41866;BME280;27539;43.222;27.558;2023-08-06T12:17:43;98988.47;;;23.34;100.00
41866;BME280;27539;43.222;27.558;2023-08-06T12:20:09;99032.66;;;23.90;100.00
41866;BME280;27539;43.222;27.558;2023-08-06T12:22:36;99065.91;;;24.48;100.00
41866;BME280;27539;43.222;27.558;2023-08-06T12:25:04;99006.31;;;24.55;100.00
41866;BME280;27539;43.222;27.558;2023-08-06T12:27:33;99064.78;;;25.21;100.00
41866;BME280;27539;43.222;27.558;2023-08-06T12:29:59;99048.78;;;25.40;100.00
41866;BME280;27539;43.222;27.558;2023-08-06T12:32:25;99049.91;;;25.62;100.00
41866;BME280;27539;43.222;27.558;2023-08-06T12:34:50;99068.75;;;26.00;100.00
41866;BME280;27539;43.222;27.558;2023-08-06T12:37:15;99077.88;;;25.83;100.00
41866;BME280;27539;43.222;27.558;2023-08-06T12:39:41;99085.25;;;26.18;100.00
41866;BME280;27539;43.222;27.558;2023-08-06T12:42:06;99095.97;;;26.28;100.00
41866;BME280;27539;43.222;27.558;2023-08-06T12:44:32;99103.19;;;26.52;100.00
41866;BME280;27539;43.222;27.558;2023-08-06T12:46:58;99094.91;;;26.74;100.00
41866;BME280;27539;43.222;27.558;2023-08-06T12:49:25;99092.09;;;26.81;100.00
41866;BME280;27539;43.222;27.558;2023-08-06T12:51:51;99126.25;;;27.14;100.00
41866;BME280;27539;43.222;27.558;2023-08-06T12:54:18;99102.28;;;27.19;100.00
41866;BME280;27539;43.222;27.558;2023-08-06T12:56:45;99094.16;;;27.25;100.00
41866;BME280;27539;43.222;27.558;2023-08-06T12:59:11;99090.50;;;27.28;100.00